createdAt,value
2022-09-03T00:02:14.844Z,1.98
2022-09-03T00:05:07.564Z,2.13
2022-09-03T00:07:56.380Z,2.30
2022-09-03T00:11:12.073Z,2.20
2022-09-03T00:13:57.727Z,2.30
2022-09-03T00:16:31.561Z,2.28
2022-09-03T00:19:03.515Z,2.13
2022-09-03T00:21:51.745Z,2.22
2022-09-03T00:24:23.272Z,2.38
2022-09-03T00:26:56.445Z,2.20
2022-09-03T00:29:52.451Z,2.25
2022-09-03T00:32:48.996Z,2.20
2022-09-03T00:35:44.104Z,2.22
2022-09-03T00:38:11.904Z,2.00
2022-09-03T00:40:54.649Z,2.00
2022-09-03T00:43:52.159Z,2.28
2022-09-03T00:46:37.942Z,2.00
2022-09-03T00:49:23.860Z,2.35
2022-09-03T00:52:40.289Z,2.22
2022-09-03T00:55:08.293Z,1.67
2022-09-03T00:58:05.089Z,2.22
2022-09-03T01:00:32.739Z,2.22
2022-09-03T01:03:37.717Z,1.95
2022-09-03T01:06:36.281Z,1.90
2022-09-03T01:09:24.063Z,2.63
2022-09-03T01:12:14.891Z,2.30
2022-09-03T01:14:46.590Z,1.88
2022-09-03T01:17:20.580Z,2.85
2022-09-03T01:20:06.843Z,1.90
2022-09-03T01:22:50.529Z,2.00
2022-09-03T01:26:08.272Z,1.65
2022-09-03T01:28:56.477Z,1.80
2022-09-03T01:31:37.293Z,1.77
2022-09-03T01:34:28.195Z,2.03
2022-09-03T01:37:34.144Z,1.90
2022-09-03T01:40:07.893Z,1.80
2022-09-03T01:42:48.541Z,1.60
2022-09-03T01:45:34.202Z,1.70
2022-09-03T01:48:25.136Z,1.75
2022-09-03T01:51:04.247Z,2.30
2022-09-03T01:54:10.884Z,2.20
2022-09-03T01:57:40.517Z,2.10
2022-09-03T02:00:13.308Z,1.95
2022-09-03T02:02:44.083Z,2.17
2022-09-03T02:05:16.408Z,1.90
2022-09-03T02:07:44.375Z,1.98
2022-09-03T02:10:17.145Z,1.98
2022-09-03T02:12:54.887Z,1.88
2022-09-03T02:15:25.436Z,1.90
2022-09-03T02:17:57.845Z,2.00
2022-09-03T02:20:28.888Z,1.88
2022-09-03T02:22:58.293Z,1.98
2022-09-03T02:25:35.844Z,2.00
2022-09-03T02:28:05.855Z,1.92
2022-09-03T02:30:39.111Z,2.13
2022-09-03T02:33:10.192Z,2.53
2022-09-03T02:35:40.397Z,2.10
2022-09-03T02:38:19.187Z,2.17
2022-09-03T02:40:47.785Z,2.35
2022-09-03T02:43:25.948Z,2.00
2022-09-03T02:45:59.821Z,2.15
2022-09-03T02:48:28.021Z,2.10
2022-09-03T02:50:55.816Z,2.05
2022-09-03T02:53:23.416Z,2.03
2022-09-03T02:55:50.998Z,1.80
2022-09-03T02:58:18.679Z,2.00
2022-09-03T03:00:46.437Z,2.30
2022-09-03T03:03:14.321Z,2.30
2022-09-03T03:05:50.741Z,2.03
2022-09-03T03:08:21.842Z,1.90
2022-09-03T03:10:49.711Z,2.30
2022-09-03T03:13:17.392Z,2.00
2022-09-03T03:15:45.044Z,1.70
2022-09-03T03:18:14.130Z,2.00
2022-09-03T03:20:42.421Z,2.10
2022-09-03T03:23:11.054Z,2.00
2022-09-03T03:25:39.984Z,1.95
2022-09-03T03:28:08.300Z,2.35
2022-09-03T03:30:40.476Z,2.25
2022-09-03T03:33:09.386Z,2.00
2022-09-03T03:35:37.775Z,2.25
2022-09-03T03:38:05.555Z,1.92
2022-09-03T03:40:34.055Z,1.52
2022-09-03T03:43:01.715Z,1.83
2022-09-03T03:45:29.580Z,1.88
2022-09-03T03:47:59.326Z,1.80
2022-09-03T03:52:54.543Z,2.20
2022-09-03T03:55:22.950Z,2.00
2022-09-03T03:57:54.833Z,1.58
2022-09-03T04:00:22.484Z,1.85
2022-09-03T04:02:52.952Z,1.83
2022-09-03T04:05:23.175Z,2.30
2022-09-03T04:07:52.332Z,1.70
2022-09-03T04:10:20.390Z,1.63
2022-09-03T04:12:48.765Z,2.05
2022-09-03T04:15:16.426Z,2.05
2022-09-03T04:17:45.296Z,1.80
2022-09-03T04:20:13.244Z,2.15
2022-09-03T04:22:40.833Z,2.13
2022-09-03T04:25:09.110Z,2.00
2022-09-03T04:27:36.720Z,1.80
2022-09-03T04:30:04.931Z,1.70
2022-09-03T04:32:52.546Z,2.25
2022-09-03T04:35:21.565Z,2.10
2022-09-03T04:37:49.217Z,1.95
2022-09-03T04:40:18.485Z,1.75
2022-09-03T04:42:46.119Z,1.70
2022-09-03T04:45:18.794Z,2.15
2022-09-03T04:47:56.986Z,2.00
2022-09-03T04:50:25.309Z,2.15
2022-09-03T04:53:07.912Z,1.92
2022-09-03T04:55:37.540Z,2.20
2022-09-03T04:58:08.088Z,2.00
2022-09-03T05:00:38.038Z,1.80
2022-09-03T05:03:06.135Z,2.03
2022-09-03T05:05:33.913Z,2.20
2022-09-03T05:08:02.061Z,2.00
2022-09-03T05:10:30.752Z,2.10
2022-09-03T05:13:03.585Z,2.53
2022-09-03T05:15:33.208Z,1.90
2022-09-03T05:18:04.463Z,2.20
2022-09-03T05:20:32.932Z,2.10
2022-09-03T05:23:04.114Z,1.77
2022-09-03T05:25:34.512Z,2.30
2022-09-03T05:28:02.461Z,2.10
2022-09-03T05:30:30.631Z,1.85
2022-09-03T05:32:58.414Z,1.70
2022-09-03T05:35:27.898Z,2.03
2022-09-03T05:37:58.163Z,2.08
2022-09-03T05:40:26.042Z,16.42
2022-09-03T05:42:59.075Z,3.20
2022-09-03T05:45:28.021Z,4.13
2022-09-03T05:47:55.815Z,2.45
2022-09-03T05:50:23.484Z,2.00
2022-09-03T05:52:51.301Z,10.23
2022-09-03T05:55:19.656Z,2.67
2022-09-03T05:57:52.552Z,3.10
2022-09-03T06:00:21.241Z,2.35
2022-09-03T06:02:52.972Z,2.50
2022-09-03T06:05:21.884Z,1.85
2022-09-03T06:07:49.703Z,3.42
2022-09-03T06:10:18.747Z,2.10
2022-09-03T06:12:52.334Z,1.70
2022-09-03T06:15:20.102Z,1.75
2022-09-03T06:17:47.734Z,2.28
2022-09-03T06:20:15.426Z,2.78
2022-09-03T06:22:49.085Z,1.77
2022-09-03T06:25:16.869Z,1.55
2022-09-03T06:27:44.513Z,2.63
2022-09-03T06:30:13.885Z,1.75
2022-09-03T06:32:45.828Z,2.47
2022-09-03T06:35:13.847Z,1.90
2022-09-03T06:37:42.127Z,2.00
2022-09-03T06:40:13.362Z,1.63
2022-09-03T06:42:41.558Z,1.50
2022-09-03T06:45:13.524Z,1.70
2022-09-03T06:47:42.192Z,1.70
2022-09-03T06:50:10.285Z,1.73
2022-09-03T06:52:38.396Z,1.70
2022-09-03T06:55:06.600Z,1.70
2022-09-03T06:57:34.234Z,1.75
2022-09-03T07:00:04.019Z,1.58
2022-09-03T07:02:33.540Z,2.00
2022-09-03T07:05:01.291Z,1.23
2022-09-03T07:07:30.051Z,1.40
2022-09-03T07:09:57.768Z,1.25
2022-09-03T07:12:25.417Z,1.30
2022-09-03T07:14:53.520Z,1.40
2022-09-03T07:17:22.423Z,2.33
2022-09-03T07:19:50.147Z,1.50
2022-09-03T07:22:17.736Z,1.40
2022-09-03T07:24:47.733Z,3.95
2022-09-03T07:27:15.445Z,1.50
2022-09-03T07:29:43.267Z,1.40
2022-09-03T07:32:10.916Z,1.42
2022-09-03T07:34:38.775Z,1.25
2022-09-03T07:37:08.069Z,1.58
2022-09-03T07:39:35.922Z,1.30
2022-09-03T07:42:04.157Z,1.30
2022-09-03T07:44:31.912Z,1.50
2022-09-03T07:47:00.873Z,1.67
2022-09-03T07:49:28.704Z,1.27
2022-09-03T07:51:56.495Z,1.58
2022-09-03T07:54:26.200Z,1.40
2022-09-03T07:59:23.103Z,1.20
2022-09-03T08:01:51.088Z,0.90
2022-09-03T08:04:18.827Z,1.00
2022-09-03T08:06:46.733Z,1.60
2022-09-03T08:09:14.351Z,1.27
2022-09-03T08:11:46.093Z,1.27
2022-09-03T08:14:14.947Z,1.27
2022-09-03T08:16:47.468Z,1.38
2022-09-03T08:19:18.390Z,1.20
2022-09-03T08:21:46.588Z,1.40
2022-09-03T08:24:17.008Z,1.40
2022-09-03T08:26:50.703Z,1.38
2022-09-03T08:29:22.445Z,1.38
2022-09-03T08:31:50.463Z,1.33
2022-09-03T08:34:18.782Z,1.10
2022-09-03T08:36:47.620Z,1.00
2022-09-03T08:39:15.748Z,1.17
2022-09-03T08:41:58.276Z,1.10
2022-09-03T08:44:49.466Z,1.50
2022-09-03T08:47:29.568Z,1.20
2022-09-03T08:52:52.122Z,1.30
2022-09-03T08:55:34.384Z,2.22
2022-09-03T08:58:27.473Z,1.20
2022-09-03T09:01:04.039Z,1.73
2022-09-03T09:03:50.345Z,1.30
2022-09-03T09:06:42.215Z,1.70
2022-09-03T09:09:16.256Z,1.88
2022-09-03T09:12:10.581Z,1.70
2022-09-03T09:15:08.610Z,1.38
2022-09-03T09:17:36.249Z,1.33
2022-09-03T09:20:15.537Z,1.42
2022-09-03T09:23:01.980Z,1.30
2022-09-03T09:25:31.867Z,1.38
2022-09-03T09:28:20.283Z,1.40
2022-09-03T09:30:50.256Z,2.55
2022-09-03T09:33:19.693Z,1.63
2022-09-03T09:35:48.380Z,1.23
2022-09-03T09:38:27.217Z,1.40
2022-09-03T09:40:57.270Z,1.17
2022-09-03T09:43:25.086Z,1.40
2022-09-03T09:45:53.884Z,1.15
2022-09-03T09:48:34.541Z,1.35
2022-09-03T09:51:41.375Z,1.60
2022-09-03T09:54:28.040Z,2.03
2022-09-03T09:57:00.838Z,2.03
2022-09-03T09:59:28.891Z,1.75
2022-09-03T10:02:10.647Z,1.67
2022-09-03T10:04:45.851Z,1.48
2022-09-03T10:07:33.138Z,1.10
2022-09-03T10:13:12.973Z,1.30
2022-09-03T10:15:49.116Z,1.27
2022-09-03T10:18:35.438Z,1.50
2022-09-03T10:21:12.780Z,1.30
2022-09-03T10:24:07.097Z,2.20
2022-09-03T10:26:36.974Z,2.85
2022-09-03T10:29:07.716Z,1.70
2022-09-03T10:31:36.774Z,3.78
2022-09-03T10:34:10.942Z,1.85
2022-09-03T10:37:08.149Z,1.92
2022-09-03T10:40:07.626Z,1.52
2022-09-03T10:45:47.897Z,1.30
2022-09-03T10:48:38.613Z,1.77
2022-09-03T10:51:12.644Z,1.60
2022-09-03T10:53:51.770Z,7.55
2022-09-03T10:56:31.311Z,3.28
2022-09-03T10:59:18.101Z,2.28
2022-09-03T11:02:01.578Z,1.90
2022-09-03T11:04:49.454Z,2.67
2022-09-03T11:07:23.447Z,1.75
2022-09-03T11:10:12.426Z,1.58
2022-09-03T11:12:48.281Z,1.75
2022-09-03T11:15:27.588Z,1.30
2022-09-03T11:17:58.301Z,1.40
2022-09-03T11:20:27.885Z,1.45
2022-09-03T11:23:00.176Z,1.35
2022-09-03T11:25:34.390Z,1.50
2022-09-03T11:28:02.120Z,1.30
2022-09-03T11:30:37.196Z,1.10
2022-09-03T11:33:10.608Z,2.25
2022-09-03T11:35:41.899Z,1.40
2022-09-03T11:38:15.704Z,1.75
2022-09-03T11:41:15.935Z,1.35
2022-09-03T11:43:44.390Z,1.30
2022-09-03T11:46:33.285Z,1.55
2022-09-03T11:49:13.984Z,1.67
2022-09-03T11:51:45.136Z,1.30
2022-09-03T11:54:12.796Z,2.10
2022-09-03T11:56:42.317Z,1.20
2022-09-03T12:01:53.028Z,1.73
2022-09-03T12:04:31.586Z,1.50
2022-09-03T12:07:20.780Z,1.83
2022-09-03T12:10:20.360Z,1.40
2022-09-03T12:16:01.922Z,1.60
2022-09-03T12:18:31.476Z,2.72
2022-09-03T12:21:00.329Z,1.50
2022-09-03T12:23:49.396Z,1.50
2022-09-03T12:26:24.798Z,1.40
2022-09-03T12:28:56.635Z,1.52
2022-09-03T12:31:25.659Z,2.28
2022-09-03T12:33:54.924Z,1.70
2022-09-03T12:36:23.608Z,2.20
2022-09-03T12:39:10.792Z,2.60
2022-09-03T12:41:47.177Z,1.90
2022-09-03T12:44:14.925Z,2.00
2022-09-03T12:46:42.632Z,2.22
2022-09-03T12:49:30.967Z,1.50
2022-09-03T12:52:18.624Z,1.80
2022-09-03T12:54:57.659Z,1.90
2022-09-03T12:57:36.641Z,2.00
2022-09-03T13:00:08.506Z,2.08
2022-09-03T13:02:52.397Z,8.23
2022-09-03T13:05:25.087Z,8.02
2022-09-03T13:07:58.304Z,4.20
2022-09-03T13:10:32.728Z,3.28
2022-09-03T13:13:03.657Z,3.63
2022-09-03T13:15:31.747Z,4.15
2022-09-03T13:18:28.021Z,4.38
2022-09-03T13:21:15.860Z,4.10
2022-09-03T13:23:57.724Z,4.15
2022-09-03T13:26:29.324Z,3.83
2022-09-03T13:29:31.201Z,2.95
2022-09-03T13:32:08.144Z,4.45
2022-09-03T13:34:54.492Z,3.65
2022-09-03T13:37:39.620Z,3.40
2022-09-03T13:40:16.176Z,4.15
2022-09-03T13:43:18.713Z,4.20
2022-09-03T13:45:56.231Z,4.93
2022-09-03T13:49:00.096Z,2.80
2022-09-03T13:51:38.856Z,3.65
2022-09-03T13:57:40.860Z,4.60
2022-09-03T14:00:12.092Z,4.28
2022-09-03T14:02:42.909Z,4.03
2022-09-03T14:05:24.392Z,3.38
2022-09-03T14:08:33.316Z,3.10
2022-09-03T14:11:24.061Z,3.00
2022-09-03T14:14:13.757Z,4.00
2022-09-03T14:17:10.176Z,2.55
2022-09-03T14:19:41.051Z,3.08
2022-09-03T14:22:22.529Z,4.38
2022-09-03T14:24:53.360Z,3.72
2022-09-03T14:27:29.250Z,7.47
2022-09-03T14:30:17.604Z,5.65
2022-09-03T14:33:19.047Z,6.40
2022-09-03T14:36:04.945Z,6.82
2022-09-03T14:38:41.090Z,6.35
2022-09-03T14:41:16.930Z,5.55
2022-09-03T14:44:15.646Z,4.22
2022-09-03T14:46:58.804Z,3.72
2022-09-03T14:49:47.670Z,3.65
2022-09-03T14:52:36.244Z,3.20
2022-09-03T14:55:21.989Z,4.63
2022-09-03T14:57:58.701Z,3.80
2022-09-03T15:00:43.460Z,5.93
2022-09-03T15:03:31.245Z,7.03
2022-09-03T15:06:11.915Z,8.48
2022-09-03T15:08:45.732Z,7.40
2022-09-03T15:11:20.585Z,8.00
2022-09-03T15:13:54.738Z,9.35
2022-09-03T15:16:44.726Z,11.05
2022-09-03T15:21:51.909Z,7.47
2022-09-03T15:24:30.113Z,6.95
2022-09-03T15:27:32.034Z,7.60
2022-09-03T15:30:09.654Z,7.25
2022-09-03T15:32:46.758Z,8.63
2022-09-03T15:35:20.514Z,7.88
2022-09-03T15:38:05.575Z,9.10
2022-09-03T15:40:35.885Z,8.15
2022-09-03T15:43:17.772Z,8.82
2022-09-03T15:45:59.958Z,7.70
2022-09-03T15:48:50.624Z,9.35
2022-09-03T15:51:28.658Z,9.95
2022-09-03T15:54:07.269Z,9.45
2022-09-03T15:56:47.754Z,9.30
2022-09-03T15:59:48.929Z,9.55
2022-09-03T16:02:23.926Z,9.23
2022-09-03T16:05:39.428Z,8.95
2022-09-03T16:08:10.807Z,9.95
2022-09-03T16:10:58.032Z,9.05
2022-09-03T16:13:31.777Z,10.13
2022-09-03T16:16:05.278Z,10.45
2022-09-03T16:18:36.512Z,10.38
2022-09-03T16:21:32.862Z,10.35
2022-09-03T16:24:27.172Z,9.95
2022-09-03T16:27:11.222Z,21.95
2022-09-03T16:29:40.701Z,11.63
2022-09-03T16:32:35.314Z,12.70
2022-09-03T16:35:18.516Z,21.90
2022-09-03T16:38:13.068Z,13.38
2022-09-03T16:40:59.149Z,10.15
2022-09-03T16:43:55.571Z,10.18
2022-09-03T16:46:29.380Z,10.32
2022-09-03T16:49:26.874Z,11.52
2022-09-03T16:52:15.984Z,10.40
2022-09-03T16:54:58.712Z,9.35
2022-09-03T16:57:33.331Z,10.40
2022-09-03T17:00:15.595Z,10.95
2022-09-03T17:02:58.596Z,10.68
2022-09-03T17:05:45.065Z,10.80
2022-09-03T17:08:49.555Z,8.80
2022-09-03T17:11:47.671Z,8.45
2022-09-03T17:14:27.855Z,10.18
2022-09-03T17:17:15.788Z,7.30
2022-09-03T17:20:21.802Z,6.50
2022-09-03T17:22:55.496Z,5.82
2022-09-03T17:25:23.183Z,5.47
2022-09-03T17:28:35.431Z,5.18
2022-09-03T17:31:16.182Z,5.65
2022-09-03T17:34:08.029Z,4.93
2022-09-03T17:36:57.797Z,4.22
2022-09-03T17:39:45.514Z,3.57
2022-09-03T17:42:32.484Z,4.35
2022-09-03T17:45:00.078Z,5.18
2022-09-03T17:47:39.797Z,5.50
2022-09-03T17:52:43.877Z,5.45
2022-09-03T17:55:30.821Z,6.75
2022-09-03T17:58:17.426Z,6.55
2022-09-03T18:01:03.240Z,6.45
2022-09-03T18:03:41.408Z,6.63
2022-09-03T18:06:27.942Z,6.68
2022-09-03T18:09:17.814Z,4.95
2022-09-03T18:14:36.000Z,4.93
2022-09-03T18:17:14.011Z,6.40
2022-09-03T18:20:08.607Z,6.18
2022-09-03T18:23:18.474Z,6.82
2022-09-03T18:26:09.706Z,6.43
2022-09-03T18:29:06.651Z,6.72
2022-09-03T18:31:53.308Z,4.60
2022-09-03T18:34:48.341Z,5.82
2022-09-03T18:37:40.586Z,6.60
2022-09-03T18:40:29.520Z,5.20
2022-09-03T18:43:22.828Z,3.92
2022-09-03T18:52:39.865Z,3.95
2022-09-03T18:55:31.946Z,3.10
2022-09-03T18:58:51.626Z,2.53
2022-09-03T19:01:55.621Z,3.03
2022-09-03T19:04:55.049Z,2.40
2022-09-03T19:07:59.098Z,1.70
2022-09-03T19:11:12.819Z,2.00
2022-09-03T19:14:00.594Z,2.42
2022-09-03T19:17:11.709Z,2.50
2022-09-03T19:20:35.320Z,3.72
2022-09-03T19:23:22.234Z,5.63
2022-09-03T19:26:14.546Z,6.38
2022-09-03T19:29:06.400Z,7.47
2022-09-03T19:32:13.222Z,8.70
2022-09-03T19:35:19.513Z,8.10
2022-09-03T19:38:24.272Z,8.20
2022-09-03T19:41:52.076Z,8.77
2022-09-03T19:44:51.119Z,7.10
2022-09-03T19:48:03.766Z,8.07
2022-09-03T19:50:57.886Z,6.25
2022-09-03T19:53:44.563Z,7.70
2022-09-03T19:56:44.128Z,10.60
2022-09-03T19:59:42.768Z,7.15
2022-09-03T20:02:29.342Z,5.20
2022-09-03T20:05:18.773Z,4.85
2022-09-03T20:08:09.980Z,4.57
2022-09-03T20:10:37.945Z,6.70
2022-09-03T20:13:05.664Z,5.55
2022-09-03T20:15:57.777Z,5.00
2022-09-03T20:18:31.657Z,6.30
2022-09-03T20:21:10.504Z,6.53
2022-09-03T20:23:58.396Z,11.52
2022-09-03T20:26:48.248Z,13.50
2022-09-03T20:29:22.944Z,13.90
2022-09-03T20:32:38.177Z,16.10
2022-09-03T20:35:10.277Z,17.98
2022-09-03T20:37:53.500Z,18.13
2022-09-03T20:40:37.448Z,21.23
2022-09-03T20:43:35.589Z,19.45
2022-09-03T20:46:36.886Z,17.52
2022-09-03T20:49:20.260Z,15.40
2022-09-03T20:52:23.383Z,16.45
2022-09-03T20:55:04.196Z,17.10
2022-09-03T20:58:00.905Z,14.88
2022-09-03T21:00:52.228Z,17.40
2022-09-03T21:03:30.877Z,14.10
2022-09-03T21:06:09.863Z,13.55
2022-09-03T21:08:48.896Z,11.43
2022-09-03T21:11:49.698Z,7.55
2022-09-03T21:14:41.516Z,6.32
2022-09-03T21:17:24.536Z,3.30
2022-09-03T21:20:09.693Z,3.35
2022-09-03T21:23:07.606Z,3.80
2022-09-03T21:25:59.894Z,3.10
2022-09-03T21:28:40.464Z,3.80
2022-09-03T21:31:19.810Z,5.88
2022-09-03T21:33:51.311Z,4.60
2022-09-03T21:36:30.376Z,4.72
2022-09-03T21:39:13.871Z,3.25
2022-09-03T21:41:53.507Z,3.13
2022-09-03T21:44:40.169Z,4.40
2022-09-03T21:47:11.519Z,3.85
2022-09-03T21:49:47.622Z,4.43
2022-09-03T21:52:19.748Z,3.65
2022-09-03T21:54:47.948Z,3.60
2022-09-03T21:57:45.136Z,4.15
2022-09-03T22:00:19.425Z,10.65
2022-09-03T22:02:49.704Z,7.38
2022-09-03T22:05:18.626Z,9.50
2022-09-03T22:08:13.207Z,8.98
2022-09-03T22:10:40.886Z,5.85
2022-09-03T22:13:26.374Z,5.72
2022-09-03T22:16:13.621Z,9.55
2022-09-03T22:18:41.533Z,8.65
2022-09-03T22:21:18.125Z,7.50
2022-09-03T22:24:42.953Z,7.85
2022-09-03T22:27:31.561Z,7.57
2022-09-03T22:30:08.123Z,9.07
2022-09-03T22:32:36.429Z,10.13
2022-09-03T22:35:13.582Z,11.52
2022-09-03T22:37:51.925Z,13.38
2022-09-03T22:40:37.124Z,12.02
2022-09-03T22:43:10.515Z,9.27
2022-09-03T22:45:59.841Z,8.68
2022-09-03T22:49:01.541Z,8.82
2022-09-03T22:51:40.980Z,9.68
2022-09-03T22:54:47.939Z,12.55
2022-09-03T22:57:18.784Z,13.63
2022-09-03T23:00:06.877Z,12.93
2022-09-03T23:02:35.525Z,11.10
2022-09-03T23:05:24.172Z,8.68
2022-09-03T23:08:03.314Z,8.25
2022-09-03T23:10:59.689Z,5.57
2022-09-03T23:13:35.653Z,3.97
2022-09-03T23:16:15.617Z,2.47
2022-09-03T23:18:47.139Z,1.92
2022-09-03T23:21:32.111Z,1.95
2022-09-03T23:24:12.738Z,2.15
2022-09-03T23:26:47.324Z,2.10
2022-09-03T23:29:16.122Z,2.47
2022-09-03T23:31:43.955Z,2.58
2022-09-03T23:34:12.720Z,2.17
2022-09-03T23:40:06.112Z,2.28
2022-09-03T23:42:50.311Z,2.20
2022-09-03T23:45:36.516Z,2.40
2022-09-03T23:48:10.280Z,1.90
2022-09-03T23:51:20.005Z,1.52
2022-09-03T23:56:36.464Z,1.85
2022-09-03T23:59:19.229Z,1.98
